sensor_id;sensor_type;location;lat;lon;timestamp;temperature;humidity
19654;DHT22;9975;48.046;7.804;2023-04-06T01:56:44;-0.60;99.90
19654;DHT22;9975;48.046;7.804;2023-04-06T01:59:09;-0.70;99.90
19654;DHT22;9975;48.046;7.804;2023-04-06T02:01:35;-0.70;99.90
19654;DHT22;9975;48.046;7.804;2023-04-06T02:04:01;-0.60;99.90
19654;DHT22;9975;48.046;7.804;2023-04-06T02:06:26;-0.60;99.90
19654;DHT22;9975;48.046;7.804;2023-04-06T02:08:52;-0.60;99.90
19654;DHT22;9975;48.046;7.804;2023-04-06T02:11:17;-0.60;99.90
19654;DHT22;9975;48.046;7.804;2023-04-06T02:13:43;-0.70;99.90
19654;DHT22;9975;48.046;7.804;2023-04-06T02:16:08;-0.60;99.90
19654;DHT22;9975;48.046;7.804;2023-04-06T02:18:34;-0.60;99.90
19654;DHT22;9975;48.046;7.804;2023-04-06T02:21:00;-0.70;99.90
19654;DHT22;9975;48.046;7.804;2023-04-06T02:23:26;-0.70;99.90
19654;DHT22;9975;48.046;7.804;2023-04-06T02:25:52;-0.70;99.90
19654;DHT22;9975;48.046;7.804;2023-04-06T02:28:17;-0.70;99.90
19654;DHT22;9975;48.046;7.804;2023-04-06T02:30:43;-0.60;99.90
19654;DHT22;9975;48.046;7.804;2023-04-06T02:33:08;-0.60;99.90
19654;DHT22;9975;48.046;7.804;2023-04-06T02:35:34;-0.60;99.90
19654;DHT22;9975;48.046;7.804;2023-04-06T02:38:00;-0.70;99.90
19654;DHT22;9975;48.046;7.804;2023-04-06T02:40:25;-0.80;99.90
19654;DHT22;9975;48.046;7.804;2023-04-06T02:42:51;-0.80;99.90
19654;DHT22;9975;48.046;7.804;2023-04-06T02:45:17;-0.80;99.90
19654;DHT22;9975;48.046;7.804;2023-04-06T02:47:42;-0.80;99.90
19654;DHT22;9975;48.046;7.804;2023-04-06T02:50:08;-0.90;99.90
19654;DHT22;9975;48.046;7.804;2023-04-06T02:52:34;-0.90;99.90
19654;DHT22;9975;48.046;7.804;2023-04-06T02:55:00;-0.90;99.90
19654;DHT22;9975;48.046;7.804;2023-04-06T02:57:25;-0.90;99.90
19654;DHT22;9975;48.046;7.804;2023-04-06T02:59:51;-1.00;99.90
19654;DHT22;9975;48.046;7.804;2023-04-06T03:02:17;-1.10;99.90
19654;DHT22;9975;48.046;7.804;2023-04-06T03:04:43;-1.10;99.90
19654;DHT22;9975;48.046;7.804;2023-04-06T03:07:09;-1.10;99.90
19654;DHT22;9975;48.046;7.804;2023-04-06T03:09:37;-1.20;99.90
19654;DHT22;9975;48.046;7.804;2023-04-06T03:12:03;-1.20;99.90
19654;DHT22;9975;48.046;7.804;2023-04-06T03:14:28;-1.30;99.90
19654;DHT22;9975;48.046;7.804;2023-04-06T03:16:54;-1.30;99.90
19654;DHT22;9975;48.046;7.804;2023-04-06T03:19:20;-1.30;99.90
19654;DHT22;9975;48.046;7.804;2023-04-06T03:21:45;-1.40;99.90
19654;DHT22;9975;48.046;7.804;2023-04-06T03:24:11;-1.40;99.90
19654;DHT22;9975;48.046;7.804;2023-04-06T03:26:39;-1.40;99.90
19654;DHT22;9975;48.046;7.804;2023-04-06T03:29:04;-1.40;99.90
19654;DHT22;9975;48.046;7.804;2023-04-06T03:31:30;-1.50;99.90
19654;DHT22;9975;48.046;7.804;2023-04-06T03:33:56;-1.40;99.90
19654;DHT22;9975;48.046;7.804;2023-04-06T03:36:21;-1.50;99.90
19654;DHT22;9975;48.046;7.804;2023-04-06T03:38:47;-1.40;99.90
19654;DHT22;9975;48.046;7.804;2023-04-06T03:41:13;-1.40;99.90
19654;DHT22;9975;48.046;7.804;2023-04-06T03:43:38;-1.40;99.90
19654;DHT22;9975;48.046;7.804;2023-04-06T03:46:04;-1.40;99.90
19654;DHT22;9975;48.046;7.804;2023-04-06T03:48:30;-1.30;99.90
19654;DHT22;9975;48.046;7.804;2023-04-06T03:50:55;-1.30;99.90
19654;DHT22;9975;48.046;7.804;2023-04-06T03:53:21;-1.30;99.90
19654;DHT22;9975;48.046;7.804;2023-04-06T03:55:47;-1.20;99.90
19654;DHT22;9975;48.046;7.804;2023-04-06T03:58:12;-1.20;99.90
19654;DHT22;9975;48.046;7.804;2023-04-06T04:00:38;-1.30;99.90
19654;DHT22;9975;48.046;7.804;2023-04-06T04:03:04;-1.30;99.90
19654;DHT22;9975;48.046;7.804;2023-04-06T04:05:29;-1.30;99.90
19654;DHT22;9975;48.046;7.804;2023-04-06T04:07:55;-1.30;99.90
19654;DHT22;9975;48.046;7.804;2023-04-06T04:10:21;-1.30;99.90
19654;DHT22;9975;48.046;7.804;2023-04-06T04:12:46;-1.40;99.90
19654;DHT22;9975;48.046;7.804;2023-04-06T04:15:12;-1.30;99.90
19654;DHT22;9975;48.046;7.804;2023-04-06T04:17:37;-1.30;99.90
19654;DHT22;9975;48.046;7.804;2023-04-06T04:20:03;-1.30;99.90
19654;DHT22;9975;48.046;7.804;2023-04-06T04:22:29;-1.30;99.90
19654;DHT22;9975;48.046;7.804;2023-04-06T04:24:55;-1.40;99.90
19654;DHT22;9975;48.046;7.804;2023-04-06T04:27:20;-1.50;99.90
19654;DHT22;9975;48.046;7.804;2023-04-06T04:29:47;-1.40;99.90
19654;DHT22;9975;48.046;7.804;2023-04-06T04:32:12;-1.40;99.90
19654;DHT22;9975;48.046;7.804;2023-04-06T04:34:38;-1.50;99.90
19654;DHT22;9975;48.046;7.804;2023-04-06T04:37:06;-1.50;99.90
19654;DHT22;9975;48.046;7.804;2023-04-06T04:39:32;-1.50;99.90
19654;DHT22;9975;48.046;7.804;2023-04-06T04:41:58;-1.50;99.90
19654;DHT22;9975;48.046;7.804;2023-04-06T04:44:24;-1.50;99.90
19654;DHT22;9975;48.046;7.804;2023-04-06T04:46:49;-1.50;99.90
19654;DHT22;9975;48.046;7.804;2023-04-06T04:49:15;-1.60;99.90
19654;DHT22;9975;48.046;7.804;2023-04-06T04:51:40;-1.70;99.90
19654;DHT22;9975;48.046;7.804;2023-04-06T04:54:06;-1.70;99.90
19654;DHT22;9975;48.046;7.804;2023-04-06T04:56:32;-1.70;99.90
19654;DHT22;9975;48.046;7.804;2023-04-06T04:58:57;-1.70;99.90
19654;DHT22;9975;48.046;7.804;2023-04-06T05:01:23;-1.60;99.90
19654;DHT22;9975;48.046;7.804;2023-04-06T05:03:49;-1.60;99.90
19654;DHT22;9975;48.046;7.804;2023-04-06T05:06:14;-1.70;99.90
19654;DHT22;9975;48.046;7.804;2023-04-06T05:08:41;-1.70;99.90
19654;DHT22;9975;48.046;7.804;2023-04-06T05:11:06;-1.80;99.90
19654;DHT22;9975;48.046;7.804;2023-04-06T05:13:32;-1.80;99.90
19654;DHT22;9975;48.046;7.804;2023-04-06T05:15:58;-1.80;99.90
19654;DHT22;9975;48.046;7.804;2023-04-06T05:18:24;-1.80;99.90
19654;DHT22;9975;48.046;7.804;2023-04-06T05:20:50;-1.90;99.90
19654;DHT22;9975;48.046;7.804;2023-04-06T05:23:17;-1.80;99.90
19654;DHT22;9975;48.046;7.804;2023-04-06T05:25:42;-1.80;99.90
19654;DHT22;9975;48.046;7.804;2023-04-06T05:28:08;-1.80;99.90
19654;DHT22;9975;48.046;7.804;2023-04-06T05:30:33;-1.80;99.90
19654;DHT22;9975;48.046;7.804;2023-04-06T05:33:00;-1.70;99.90
19654;DHT22;9975;48.046;7.804;2023-04-06T05:35:26;-1.60;99.90
19654;DHT22;9975;48.046;7.804;2023-04-06T05:37:52;-1.60;99.90
19654;DHT22;9975;48.046;7.804;2023-04-06T05:40:18;-1.60;99.90
19654;DHT22;9975;48.046;7.804;2023-04-06T05:42:43;-1.50;99.90
19654;DHT22;9975;48.046;7.804;2023-04-06T05:45:10;-1.50;99.90
19654;DHT22;9975;48.046;7.804;2023-04-06T05:47:36;-1.50;99.90
19654;DHT22;9975;48.046;7.804;2023-04-06T05:50:02;-1.30;99.90
19654;DHT22;9975;48.046;7.804;2023-04-06T05:52:28;-1.30;99.90
19654;DHT22;9975;48.046;7.804;2023-04-06T05:54:54;-1.20;99.90
19654;DHT22;9975;48.046;7.804;2023-04-06T05:57:22;-1.10;99.90
19654;DHT22;9975;48.046;7.804;2023-04-06T05:59:48;-1.10;99.90
19654;DHT22;9975;48.046;7.804;2023-04-06T06:02:14;-1.00;99.90
19654;DHT22;9975;48.046;7.804;2023-04-06T06:04:39;-1.00;99.90
19654;DHT22;9975;48.046;7.804;2023-04-06T06:07:05;-0.90;99.90
19654;DHT22;9975;48.046;7.804;2023-04-06T06:09:31;-0.90;99.90
19654;DHT22;9975;48.046;7.804;2023-04-06T06:11:56;-0.90;99.90
19654;DHT22;9975;48.046;7.804;2023-04-06T06:14:23;-0.80;99.90
19654;DHT22;9975;48.046;7.804;2023-04-06T06:16:49;-0.70;99.90
19654;DHT22;9975;48.046;7.804;2023-04-06T06:19:14;-0.60;99.90
19654;DHT22;9975;48.046;7.804;2023-04-06T06:21:40;-0.40;99.90
19654;DHT22;9975;48.046;7.804;2023-04-06T06:24:07;-0.30;99.90
19654;DHT22;9975;48.046;7.804;2023-04-06T06:26:32;-0.20;99.90
19654;DHT22;9975;48.046;7.804;2023-04-06T06:28:58;-0.10;99.90
19654;DHT22;9975;48.046;7.804;2023-04-06T06:31:23;0.10;99.90
19654;DHT22;9975;48.046;7.804;2023-04-06T06:33:49;0.20;99.90
19654;DHT22;9975;48.046;7.804;2023-04-06T06:36:17;0.30;99.90
19654;DHT22;9975;48.046;7.804;2023-04-06T06:38:43;0.50;99.90
19654;DHT22;9975;48.046;7.804;2023-04-06T06:41:09;0.60;99.90
19654;DHT22;9975;48.046;7.804;2023-04-06T06:43:34;0.80;99.90
19654;DHT22;9975;48.046;7.804;2023-04-06T06:46:00;0.90;99.90
19654;DHT22;9975;48.046;7.804;2023-04-06T06:48:25;1.00;99.90
19654;DHT22;9975;48.046;7.804;2023-04-06T06:50:51;1.20;99.90
19654;DHT22;9975;48.046;7.804;2023-04-06T06:53:17;1.40;99.90
19654;DHT22;9975;48.046;7.804;2023-04-06T06:55:42;1.50;99.90
19654;DHT22;9975;48.046;7.804;2023-04-06T06:58:09;1.70;99.90
19654;DHT22;9975;48.046;7.804;2023-04-06T07:00:35;1.80;99.90
19654;DHT22;9975;48.046;7.804;2023-04-06T07:03:01;2.00;99.90
19654;DHT22;9975;48.046;7.804;2023-04-06T07:05:26;2.20;99.90
19654;DHT22;9975;48.046;7.804;2023-04-06T07:07:53;2.40;99.90
19654;DHT22;9975;48.046;7.804;2023-04-06T07:10:18;2.50;99.90
19654;DHT22;9975;48.046;7.804;2023-04-06T07:12:44;2.70;99.90
19654;DHT22;9975;48.046;7.804;2023-04-06T07:15:10;2.80;99.20
19654;DHT22;9975;48.046;7.804;2023-04-06T07:17:36;2.90;99.20
19654;DHT22;9975;48.046;7.804;2023-04-06T07:20:01;3.00;99.40
19654;DHT22;9975;48.046;7.804;2023-04-06T07:22:27;3.20;97.50
19654;DHT22;9975;48.046;7.804;2023-04-06T07:24:53;3.30;98.30
19654;DHT22;9975;48.046;7.804;2023-04-06T07:27:21;3.60;96.80
19654;DHT22;9975;48.046;7.804;2023-04-06T07:29:46;3.70;94.30
19654;DHT22;9975;48.046;7.804;2023-04-06T07:32:12;3.90;93.80
19654;DHT22;9975;48.046;7.804;2023-04-06T07:34:38;4.00;91.60
19654;DHT22;9975;48.046;7.804;2023-04-06T07:37:03;4.30;91.00
19654;DHT22;9975;48.046;7.804;2023-04-06T07:39:29;4.60;89.30
19654;DHT22;9975;48.046;7.804;2023-04-06T07:41:55;4.70;90.00
19654;DHT22;9975;48.046;7.804;2023-04-06T07:44:22;4.90;87.40
19654;DHT22;9975;48.046;7.804;2023-04-06T07:46:48;5.00;85.30
19654;DHT22;9975;48.046;7.804;2023-04-06T07:49:14;5.20;83.80
19654;DHT22;9975;48.046;7.804;2023-04-06T07:51:39;5.40;85.20
19654;DHT22;9975;48.046;7.804;2023-04-06T07:54:05;5.70;83.30
19654;DHT22;9975;48.046;7.804;2023-04-06T07:56:32;5.90;79.80
19654;DHT22;9975;48.046;7.804;2023-04-06T07:58:58;6.10;78.20
19654;DHT22;9975;48.046;7.804;2023-04-06T08:01:24;6.20;75.00
19654;DHT22;9975;48.046;7.804;2023-04-06T08:03:50;6.40;75.90
19654;DHT22;9975;48.046;7.804;2023-04-06T08:06:16;6.70;75.20
19654;DHT22;9975;48.046;7.804;2023-04-06T08:08:42;7.10;70.70
19654;DHT22;9975;48.046;7.804;2023-04-06T08:11:08;7.30;70.70
19654;DHT22;9975;48.046;7.804;2023-04-06T08:13:34;7.40;69.40
19654;DHT22;9975;48.046;7.804;2023-04-06T08:16:01;7.70;69.10
19654;DHT22;9975;48.046;7.804;2023-04-06T08:18:26;7.70;64.30
19654;DHT22;9975;48.046;7.804;2023-04-06T08:20:52;7.70;64.90
19654;DHT22;9975;48.046;7.804;2023-04-06T08:23:18;8.00;64.00
19654;DHT22;9975;48.046;7.804;2023-04-06T08:25:43;8.40;62.90
19654;DHT22;9975;48.046;7.804;2023-04-06T08:28:09;8.70;59.50
19654;DHT22;9975;48.046;7.804;2023-04-06T08:30:35;8.90;57.80
19654;DHT22;9975;48.046;7.804;2023-04-06T08:33:01;9.20;59.20
19654;DHT22;9975;48.046;7.804;2023-04-06T08:35:27;9.30;56.10
19654;DHT22;9975;48.046;7.804;2023-04-06T08:37:53;9.50;54.50
19654;DHT22;9975;48.046;7.804;2023-04-06T08:40:18;9.60;53.10
19654;DHT22;9975;48.046;7.804;2023-04-06T08:42:50;9.70;52.40
19654;DHT22;9975;48.046;7.804;2023-04-06T08:45:17;9.80;50.20
19654;DHT22;9975;48.046;7.804;2023-04-06T08:47:52;10.20;49.60
19654;DHT22;9975;48.046;7.804;2023-04-06T08:50:19;10.50;48.30
19654;DHT22;9975;48.046;7.804;2023-04-06T08:52:47;10.70;46.80
19654;DHT22;9975;48.046;7.804;2023-04-06T08:55:14;10.60;46.70
19654;DHT22;9975;48.046;7.804;2023-04-06T08:57:40;10.60;45.30
19654;DHT22;9975;48.046;7.804;2023-04-06T09:00:07;10.90;44.10
19654;DHT22;9975;48.046;7.804;2023-04-06T09:02:39;11.10;43.30
19654;DHT22;9975;48.046;7.804;2023-04-06T09:05:07;11.30;40.80
19654;DHT22;9975;48.046;7.804;2023-04-06T09:07:35;11.40;41.10
19654;DHT22;9975;48.046;7.804;2023-04-06T09:10:01;11.60;40.30
19654;DHT22;9975;48.046;7.804;2023-04-06T09:12:29;11.80;40.90
19654;DHT22;9975;48.046;7.804;2023-04-06T09:14:55;12.10;40.20
19654;DHT22;9975;48.046;7.804;2023-04-06T09:17:26;12.30;37.50
19654;DHT22;9975;48.046;7.804;2023-04-06T09:19:52;12.50;37.80
19654;DHT22;9975;48.046;7.804;2023-04-06T09:22:18;12.70;36.10
19654;DHT22;9975;48.046;7.804;2023-04-06T09:24:49;12.70;34.20
19654;DHT22;9975;48.046;7.804;2023-04-06T09:27:15;13.10;34.10
19654;DHT22;9975;48.046;7.804;2023-04-06T09:29:42;13.30;32.60
19654;DHT22;9975;48.046;7.804;2023-04-06T09:32:08;13.40;32.80
19654;DHT22;9975;48.046;7.804;2023-04-06T09:34:40;13.60;33.10
19654;DHT22;9975;48.046;7.804;2023-04-06T09:37:15;13.70;29.80
19654;DHT22;9975;48.046;7.804;2023-04-06T09:39:41;13.50;30.10
19654;DHT22;9975;48.046;7.804;2023-04-06T09:42:08;13.50;29.30
19654;DHT22;9975;48.046;7.804;2023-04-06T09:44:33;13.50;28.50
19654;DHT22;9975;48.046;7.804;2023-04-06T09:46:59;13.20;29.60
19654;DHT22;9975;48.046;7.804;2023-04-06T09:49:28;13.30;29.40
19654;DHT22;9975;48.046;7.804;2023-04-06T09:52:06;13.60;29.60
19654;DHT22;9975;48.046;7.804;2023-04-06T09:54:32;13.40;27.70
19654;DHT22;9975;48.046;7.804;2023-04-06T10:00:05;13.40;28.10
19654;DHT22;9975;48.046;7.804;2023-04-06T10:02:58;13.70;27.90
19654;DHT22;9975;48.046;7.804;2023-04-06T10:08:10;14.20;27.10
19654;DHT22;9975;48.046;7.804;2023-04-06T10:10:37;14.20;26.60
19654;DHT22;9975;48.046;7.804;2023-04-06T10:13:04;14.30;25.90
19654;DHT22;9975;48.046;7.804;2023-04-06T10:15:30;14.30;25.70
19654;DHT22;9975;48.046;7.804;2023-04-06T10:17:58;14.10;25.70
19654;DHT22;9975;48.046;7.804;2023-04-06T10:23:49;14.10;25.10
19654;DHT22;9975;48.046;7.804;2023-04-06T10:26:19;14.60;25.90
19654;DHT22;9975;48.046;7.804;2023-04-06T10:28:46;14.90;25.00
19654;DHT22;9975;48.046;7.804;2023-04-06T10:31:12;14.90;23.70
19654;DHT22;9975;48.046;7.804;2023-04-06T10:33:37;15.00;23.80
19654;DHT22;9975;48.046;7.804;2023-04-06T10:36:14;14.70;24.60
19654;DHT22;9975;48.046;7.804;2023-04-06T10:38:41;15.10;25.20
19654;DHT22;9975;48.046;7.804;2023-04-06T10:41:09;15.10;24.10
19654;DHT22;9975;48.046;7.804;2023-04-06T10:43:36;15.20;23.50
19654;DHT22;9975;48.046;7.804;2023-04-06T10:46:04;15.20;23.50
19654;DHT22;9975;48.046;7.804;2023-04-06T10:48:43;15.20;23.70
19654;DHT22;9975;48.046;7.804;2023-04-06T10:51:16;15.50;25.20
19654;DHT22;9975;48.046;7.804;2023-04-06T10:53:43;15.90;23.70
19654;DHT22;9975;48.046;7.804;2023-04-06T10:56:10;16.00;22.40
19654;DHT22;9975;48.046;7.804;2023-04-06T10:58:37;16.10;22.10
19654;DHT22;9975;48.046;7.804;2023-04-06T11:01:03;16.20;22.00
19654;DHT22;9975;48.046;7.804;2023-04-06T11:03:29;15.80;21.20
19654;DHT22;9975;48.046;7.804;2023-04-06T11:05:54;15.50;22.20
19654;DHT22;9975;48.046;7.804;2023-04-06T11:10:49;15.80;19.20
19654;DHT22;9975;48.046;7.804;2023-04-06T11:13:15;16.10;19.90
19654;DHT22;9975;48.046;7.804;2023-04-06T11:15:40;16.50;20.10
19654;DHT22;9975;48.046;7.804;2023-04-06T11:18:06;16.40;18.40
19654;DHT22;9975;48.046;7.804;2023-04-06T11:20:31;16.40;19.50
19654;DHT22;9975;48.046;7.804;2023-04-06T11:22:57;16.70;19.80
19654;DHT22;9975;48.046;7.804;2023-04-06T11:25:24;16.30;18.90
19654;DHT22;9975;48.046;7.804;2023-04-06T11:27:51;16.40;19.70
19654;DHT22;9975;48.046;7.804;2023-04-06T11:30:18;16.30;19.80
19654;DHT22;9975;48.046;7.804;2023-04-06T11:32:45;16.30;19.80
19654;DHT22;9975;48.046;7.804;2023-04-06T11:35:19;16.60;20.40
19654;DHT22;9975;48.046;7.804;2023-04-06T11:37:45;16.50;19.50
19654;DHT22;9975;48.046;7.804;2023-04-06T11:40:11;16.30;19.50
19654;DHT22;9975;48.046;7.804;2023-04-06T11:42:37;16.00;18.90
19654;DHT22;9975;48.046;7.804;2023-04-06T11:45:03;16.00;18.90
19654;DHT22;9975;48.046;7.804;2023-04-06T11:47:36;16.40;18.20
19654;DHT22;9975;48.046;7.804;2023-04-06T11:50:13;16.90;18.00
19654;DHT22;9975;48.046;7.804;2023-04-06T11:52:42;17.10;19.30
19654;DHT22;9975;48.046;7.804;2023-04-06T11:55:16;16.90;18.40
19654;DHT22;9975;48.046;7.804;2023-04-06T11:57:42;17.00;18.40
19654;DHT22;9975;48.046;7.804;2023-04-06T12:00:10;16.50;17.60
19654;DHT22;9975;48.046;7.804;2023-04-06T12:02:39;16.50;17.30
19654;DHT22;9975;48.046;7.804;2023-04-06T12:05:06;16.70;18.20
19654;DHT22;9975;48.046;7.804;2023-04-06T12:07:32;16.90;18.80
19654;DHT22;9975;48.046;7.804;2023-04-06T12:10:01;16.80;17.80
19654;DHT22;9975;48.046;7.804;2023-04-06T12:12:28;16.80;18.30
19654;DHT22;9975;48.046;7.804;2023-04-06T12:14:54;16.90;18.30
19654;DHT22;9975;48.046;7.804;2023-04-06T12:17:20;17.20;18.20
19654;DHT22;9975;48.046;7.804;2023-04-06T12:19:46;17.60;17.40
19654;DHT22;9975;48.046;7.804;2023-04-06T12:22:12;17.80;16.90
19654;DHT22;9975;48.046;7.804;2023-04-06T12:24:38;17.70;17.20
19654;DHT22;9975;48.046;7.804;2023-04-06T12:27:03;16.80;17.60
19654;DHT22;9975;48.046;7.804;2023-04-06T12:29:31;16.70;18.20
19654;DHT22;9975;48.046;7.804;2023-04-06T12:31:56;16.80;18.00
19654;DHT22;9975;48.046;7.804;2023-04-06T12:34:22;16.30;18.80
19654;DHT22;9975;48.046;7.804;2023-04-06T12:36:47;16.70;19.60
19654;DHT22;9975;48.046;7.804;2023-04-06T12:39:13;16.80;17.80
19654;DHT22;9975;48.046;7.804;2023-04-06T12:41:39;16.80;17.60
19654;DHT22;9975;48.046;7.804;2023-04-06T12:44:07;16.50;17.60
19654;DHT22;9975;48.046;7.804;2023-04-06T12:46:33;16.60;18.10
19654;DHT22;9975;48.046;7.804;2023-04-06T12:48:58;16.70;18.10
19654;DHT22;9975;48.046;7.804;2023-04-06T12:51:27;16.40;17.60
19654;DHT22;9975;48.046;7.804;2023-04-06T12:53:53;16.20;18.10
19654;DHT22;9975;48.046;7.804;2023-04-06T12:56:19;16.20;18.30
19654;DHT22;9975;48.046;7.804;2023-04-06T12:58:46;16.00;18.20
19654;DHT22;9975;48.046;7.804;2023-04-06T13:01:13;16.00;18.00
19654;DHT22;9975;48.046;7.804;2023-04-06T13:03:39;16.10;17.90
19654;DHT22;9975;48.046;7.804;2023-04-06T13:06:05;16.10;18.30
19654;DHT22;9975;48.046;7.804;2023-04-06T13:08:31;16.30;18.40
19654;DHT22;9975;48.046;7.804;2023-04-06T13:10:58;16.10;18.70
19654;DHT22;9975;48.046;7.804;2023-04-06T13:13:28;16.00;18.70
19654;DHT22;9975;48.046;7.804;2023-04-06T13:16:00;15.90;18.80
19654;DHT22;9975;48.046;7.804;2023-04-06T13:18:26;16.00;19.40
19654;DHT22;9975;48.046;7.804;2023-04-06T13:20:52;16.10;18.80
19654;DHT22;9975;48.046;7.804;2023-04-06T13:23:17;16.20;19.40
19654;DHT22;9975;48.046;7.804;2023-04-06T13:25:43;15.90;19.20
19654;DHT22;9975;48.046;7.804;2023-04-06T13:28:09;15.80;18.50
19654;DHT22;9975;48.046;7.804;2023-04-06T13:30:35;15.80;18.10
19654;DHT22;9975;48.046;7.804;2023-04-06T13:33:02;16.00;18.40
19654;DHT22;9975;48.046;7.804;2023-04-06T13:35:27;15.90;18.00
19654;DHT22;9975;48.046;7.804;2023-04-06T13:37:53;16.20;18.20
19654;DHT22;9975;48.046;7.804;2023-04-06T13:40:19;16.00;17.40
19654;DHT22;9975;48.046;7.804;2023-04-06T13:42:46;16.30;18.20
19654;DHT22;9975;48.046;7.804;2023-04-06T13:45:12;16.30;17.70
19654;DHT22;9975;48.046;7.804;2023-04-06T13:47:38;16.30;18.30
19654;DHT22;9975;48.046;7.804;2023-04-06T13:50:04;16.10;18.10
19654;DHT22;9975;48.046;7.804;2023-04-06T13:52:30;16.20;19.40
19654;DHT22;9975;48.046;7.804;2023-04-06T13:54:55;16.60;18.30
19654;DHT22;9975;48.046;7.804;2023-04-06T13:57:21;16.60;18.50
19654;DHT22;9975;48.046;7.804;2023-04-06T13:59:47;16.30;17.70
19654;DHT22;9975;48.046;7.804;2023-04-06T14:02:15;16.10;17.50
19654;DHT22;9975;48.046;7.804;2023-04-06T14:04:40;16.30;18.10
19654;DHT22;9975;48.046;7.804;2023-04-06T14:07:06;15.60;18.50
19654;DHT22;9975;48.046;7.804;2023-04-06T14:09:33;15.40;18.80
19654;DHT22;9975;48.046;7.804;2023-04-06T14:11:59;15.60;18.40
19654;DHT22;9975;48.046;7.804;2023-04-06T14:14:24;15.70;18.10
19654;DHT22;9975;48.046;7.804;2023-04-06T14:16:51;15.60;18.50
19654;DHT22;9975;48.046;7.804;2023-04-06T14:19:17;15.40;18.70
19654;DHT22;9975;48.046;7.804;2023-04-06T14:21:46;15.40;18.50
19654;DHT22;9975;48.046;7.804;2023-04-06T14:24:13;15.50;19.00
19654;DHT22;9975;48.046;7.804;2023-04-06T14:26:39;15.40;19.10
19654;DHT22;9975;48.046;7.804;2023-04-06T14:29:07;15.30;19.10
19654;DHT22;9975;48.046;7.804;2023-04-06T14:31:32;15.50;19.10
19654;DHT22;9975;48.046;7.804;2023-04-06T14:34:01;15.40;19.00
19654;DHT22;9975;48.046;7.804;2023-04-06T14:36:28;15.20;19.00
19654;DHT22;9975;48.046;7.804;2023-04-06T14:38:57;15.10;19.80
19654;DHT22;9975;48.046;7.804;2023-04-06T14:41:23;15.20;20.70
19654;DHT22;9975;48.046;7.804;2023-04-06T14:43:49;15.00;19.60
19654;DHT22;9975;48.046;7.804;2023-04-06T14:46:16;15.10;19.60
19654;DHT22;9975;48.046;7.804;2023-04-06T14:48:42;15.20;19.60
19654;DHT22;9975;48.046;7.804;2023-04-06T14:51:07;15.30;19.80
19654;DHT22;9975;48.046;7.804;2023-04-06T14:53:33;15.40;19.70
19654;DHT22;9975;48.046;7.804;2023-04-06T14:55:59;15.30;19.80
19654;DHT22;9975;48.046;7.804;2023-04-06T14:58:25;15.10;19.80
19654;DHT22;9975;48.046;7.804;2023-04-06T15:01:01;15.10;19.70
19654;DHT22;9975;48.046;7.804;2023-04-06T15:03:29;15.20;20.10
19654;DHT22;9975;48.046;7.804;2023-04-06T15:05:55;15.10;20.60
19654;DHT22;9975;48.046;7.804;2023-04-06T15:08:22;15.20;19.50
19654;DHT22;9975;48.046;7.804;2023-04-06T15:10:48;15.20;19.60
19654;DHT22;9975;48.046;7.804;2023-04-06T15:13:14;15.30;20.10
19654;DHT22;9975;48.046;7.804;2023-04-06T15:15:43;15.20;19.90
19654;DHT22;9975;48.046;7.804;2023-04-06T15:18:10;15.10;20.00
19654;DHT22;9975;48.046;7.804;2023-04-06T15:20:38;14.70;21.50
19654;DHT22;9975;48.046;7.804;2023-04-06T15:23:04;14.50;21.80
19654;DHT22;9975;48.046;7.804;2023-04-06T15:25:30;14.50;21.50
19654;DHT22;9975;48.046;7.804;2023-04-06T15:27:56;14.40;21.80
19654;DHT22;9975;48.046;7.804;2023-04-06T15:30:22;14.10;23.10
19654;DHT22;9975;48.046;7.804;2023-04-06T15:32:54;13.80;23.70
19654;DHT22;9975;48.046;7.804;2023-04-06T15:35:20;13.60;24.10
19654;DHT22;9975;48.046;7.804;2023-04-06T15:37:46;13.40;24.20
19654;DHT22;9975;48.046;7.804;2023-04-06T15:40:12;13.50;24.40
19654;DHT22;9975;48.046;7.804;2023-04-06T15:42:39;13.70;24.80
19654;DHT22;9975;48.046;7.804;2023-04-06T15:45:05;13.80;24.60
19654;DHT22;9975;48.046;7.804;2023-04-06T15:47:31;13.90;24.60
19654;DHT22;9975;48.046;7.804;2023-04-06T15:49:57;14.10;24.80
19654;DHT22;9975;48.046;7.804;2023-04-06T15:52:23;14.20;24.30
19654;DHT22;9975;48.046;7.804;2023-04-06T15:54:49;14.20;23.60
19654;DHT22;9975;48.046;7.804;2023-04-06T15:57:15;14.00;23.90
19654;DHT22;9975;48.046;7.804;2023-04-06T15:59:41;14.00;24.30
19654;DHT22;9975;48.046;7.804;2023-04-06T16:02:07;13.80;24.80
19654;DHT22;9975;48.046;7.804;2023-04-06T16:04:32;13.70;25.20
19654;DHT22;9975;48.046;7.804;2023-04-06T16:06:58;13.70;26.20
19654;DHT22;9975;48.046;7.804;2023-04-06T16:09:24;13.70;26.40
19654;DHT22;9975;48.046;7.804;2023-04-06T16:11:50;13.70;26.60
19654;DHT22;9975;48.046;7.804;2023-04-06T16:14:16;13.80;26.70
19654;DHT22;9975;48.046;7.804;2023-04-06T16:16:41;13.90;26.90
19654;DHT22;9975;48.046;7.804;2023-04-06T16:19:07;14.10;27.40
19654;DHT22;9975;48.046;7.804;2023-04-06T16:21:33;14.20;27.20
19654;DHT22;9975;48.046;7.804;2023-04-06T16:23:59;14.00;26.70
19654;DHT22;9975;48.046;7.804;2023-04-06T16:26:25;13.90;26.80
19654;DHT22;9975;48.046;7.804;2023-04-06T16:28:51;13.90;27.30
19654;DHT22;9975;48.046;7.804;2023-04-06T16:31:18;13.80;27.90
19654;DHT22;9975;48.046;7.804;2023-04-06T16:33:45;13.90;27.50
19654;DHT22;9975;48.046;7.804;2023-04-06T16:36:11;13.80;27.30
19654;DHT22;9975;48.046;7.804;2023-04-06T16:38:36;13.80;28.00
19654;DHT22;9975;48.046;7.804;2023-04-06T16:41:02;13.80;28.00
19654;DHT22;9975;48.046;7.804;2023-04-06T16:43:28;14.00;27.70
19654;DHT22;9975;48.046;7.804;2023-04-06T16:45:53;13.90;26.80
19654;DHT22;9975;48.046;7.804;2023-04-06T16:48:19;13.90;27.50
19654;DHT22;9975;48.046;7.804;2023-04-06T16:50:45;13.80;27.30
19654;DHT22;9975;48.046;7.804;2023-04-06T16:53:11;13.40;27.60
19654;DHT22;9975;48.046;7.804;2023-04-06T16:55:40;13.10;28.90
19654;DHT22;9975;48.046;7.804;2023-04-06T16:58:07;12.80;29.60
19654;DHT22;9975;48.046;7.804;2023-04-06T17:00:36;12.70;30.10
19654;DHT22;9975;48.046;7.804;2023-04-06T17:03:01;12.50;31.10
19654;DHT22;9975;48.046;7.804;2023-04-06T17:05:27;12.40;32.00
19654;DHT22;9975;48.046;7.804;2023-04-06T17:07:53;12.30;33.00
19654;DHT22;9975;48.046;7.804;2023-04-06T17:10:19;12.30;35.50
19654;DHT22;9975;48.046;7.804;2023-04-06T17:12:45;12.30;36.50
19654;DHT22;9975;48.046;7.804;2023-04-06T17:15:12;12.30;38.40
19654;DHT22;9975;48.046;7.804;2023-04-06T17:17:37;12.40;38.60
19654;DHT22;9975;48.046;7.804;2023-04-06T17:20:05;12.30;37.20
19654;DHT22;9975;48.046;7.804;2023-04-06T17:22:31;12.30;38.30
19654;DHT22;9975;48.046;7.804;2023-04-06T17:24:57;12.30;38.10
19654;DHT22;9975;48.046;7.804;2023-04-06T17:27:23;12.20;38.70
19654;DHT22;9975;48.046;7.804;2023-04-06T17:29:50;12.10;39.20
19654;DHT22;9975;48.046;7.804;2023-04-06T17:32:17;11.80;40.40
19654;DHT22;9975;48.046;7.804;2023-04-06T17:34:43;11.80;40.40
19654;DHT22;9975;48.046;7.804;2023-04-06T17:37:09;11.80;41.10
19654;DHT22;9975;48.046;7.804;2023-04-06T17:39:35;11.80;40.90
19654;DHT22;9975;48.046;7.804;2023-04-06T17:42:02;11.80;41.40
19654;DHT22;9975;48.046;7.804;2023-04-06T17:44:29;11.80;42.40
19654;DHT22;9975;48.046;7.804;2023-04-06T17:46:56;11.70;43.50
19654;DHT22;9975;48.046;7.804;2023-04-06T17:49:21;11.60;42.80